Time;durP1;ratioP1;P1;durP2;ratioP2;P2;SDS_P1;SDS_P2;PMS_P1;PMS_P2;Temp;Humidity;BMP_temperature;BMP_pressure;BME280_temperature;BME280_humidity;BME280_pressure;Samples;Min_cycle;Max_cycle;Signal;HPM_P1;HPM_P2
2023/03/15 00:01:53;;;;;;;15.32;2.80;;;;;;;7.68;76.12;100120.88;4975629;28;20027;-84
2023/03/15 00:04:20;;;;;;;6.10;2.35;;;;;;;7.61;75.51;100098.22;4981353;28;20121;-84
2023/03/15 00:06:45;;;;;;;8.98;2.60;;;;;;;7.58;75.67;100093.13;4997253;28;20062;-82
2023/03/15 00:09:11;;;;;;;7.78;3.05;;;;;;;7.55;75.52;100096.03;4994920;28;20026;-85
2023/03/15 00:11:36;;;;;;;15.85;2.88;;;;;;;7.62;75.57;100099.09;4975153;28;20027;-84
2023/03/15 00:14:02;;;;;;;12.13;3.17;;;;;;;7.62;75.38;100099.94;4989397;28;20417;-84
2023/03/15 00:16:27;;;;;;;5.72;2.80;;;;;;;7.64;75.46;100092.63;4972432;28;20046;-84
2023/03/15 00:18:53;;;;;;;6.40;2.47;;;;;;;7.65;75.97;100089.00;4974008;28;20030;-81
2023/03/15 00:21:20;;;;;;;12.15;3.05;;;;;;;7.62;75.74;100083.03;4974675;28;20062;-82
2023/03/15 00:23:45;;;;;;;17.65;2.75;;;;;;;7.70;76.20;100087.81;4974024;28;20462;-84
2023/03/15 00:26:11;;;;;;;9.20;3.08;;;;;;;7.62;76.51;100066.97;4975176;28;20041;-85
2023/03/15 00:28:37;;;;;;;7.22;3.10;;;;;;;7.63;76.70;100069.53;4973862;28;20038;-86
2023/03/15 00:31:04;;;;;;;8.38;3.20;;;;;;;7.72;76.87;100077.81;4972570;28;20414;-86
2023/03/15 00:33:33;;;;;;;8.05;3.20;;;;;;;7.66;76.55;100069.31;4973818;28;20037;-84
2023/03/15 00:36:02;;;;;;;11.80;3.38;;;;;;;7.74;76.00;100067.84;4973472;28;20654;-80
2023/03/15 00:38:28;;;;;;;5.60;2.45;;;;;;;7.66;76.25;100052.38;4939672;28;20038;-86
2023/03/15 00:40:53;;;;;;;7.22;3.13;;;;;;;7.73;76.10;100055.44;4974780;28;20030;-84
2023/03/15 00:43:18;;;;;;;8.57;2.53;;;;;;;7.71;76.34;100052.00;4974223;28;20026;-86
2023/03/15 00:45:44;;;;;;;32.03;3.78;;;;;;;7.69;76.10;100044.13;4973622;28;20037;-86
2023/03/15 00:48:10;;;;;;;16.67;6.53;;;;;;;7.75;76.75;100042.78;4973290;28;20019;-85
2023/03/15 00:50:35;;;;;;;9.77;4.63;;;;;;;7.72;76.28;100030.50;4973260;28;20443;-85
2023/03/15 00:53:00;;;;;;;7.32;3.00;;;;;;;7.81;76.17;100039.63;4973386;28;20037;-86
2023/03/15 00:55:26;;;;;;;9.13;3.00;;;;;;;7.82;75.87;100030.63;4973860;28;20041;-84
2023/03/15 00:57:51;;;;;;;9.85;3.13;;;;;;;7.95;76.45;100023.31;4973517;28;20454;-86
2023/03/15 01:00:23;;;;;;;14.18;3.78;;;;;;;8.00;76.10;100015.75;4974212;28;20648;-85
2023/03/15 01:02:50;;;;;;;13.97;3.67;;;;;;;7.91;75.31;100013.81;4974233;28;20039;-85
2023/03/15 01:05:15;;;;;;;10.65;3.63;;;;;;;7.87;75.71;100004.31;4993590;28;20270;-85
2023/03/15 01:07:41;;;;;;;16.15;3.05;;;;;;;8.07;75.88;100009.78;4994283;28;20019;-80
2023/03/15 01:10:06;;;;;;;24.48;2.95;;;;;;;8.11;75.02;100002.34;4980039;28;20614;-85
2023/03/15 01:12:33;;;;;;;8.00;2.63;;;;;;;8.09;74.58;100001.63;4974204;28;20030;-84
2023/03/15 01:14:59;;;;;;;7.82;2.75;;;;;;;8.08;74.95;99974.00;4955463;28;20102;-84
2023/03/15 01:17:25;;;;;;;8.23;3.10;;;;;;;8.18;74.94;99987.50;4973217;28;20317;-86
2023/03/15 01:19:50;;;;;;;8.73;3.42;;;;;;;8.22;74.08;99987.09;4975073;28;20066;-85
2023/03/15 01:22:17;;;;;;;10.00;3.10;;;;;;;8.18;75.04;99995.53;4973574;28;20029;-84
2023/03/15 01:24:43;;;;;;;11.68;2.85;;;;;;;8.10;74.93;99980.06;4973299;28;20049;-86
2023/03/15 01:27:08;;;;;;;27.77;3.95;;;;;;;8.04;75.23;99982.41;4973159;28;20019;-85
2023/03/15 01:29:34;;;;;;;8.20;2.67;;;;;;;7.97;75.17;99973.16;4973011;28;20058;-84
2023/03/15 01:31:59;;;;;;;6.35;3.03;;;;;;;8.01;75.57;99988.84;4972881;28;20023;-82
2023/03/15 01:34:25;;;;;;;9.20;3.08;;;;;;;8.07;75.12;99971.47;4974040;28;20490;-84
2023/03/15 01:36:53;;;;;;;10.77;2.53;;;;;;;8.11;75.30;99963.03;4974397;28;20027;-85
2023/03/15 01:39:19;;;;;;;13.10;3.38;;;;;;;8.04;74.72;99977.06;4973022;28;20045;-84
2023/03/15 01:41:45;;;;;;;6.63;3.30;;;;;;;8.07;75.00;99977.63;4973101;28;20525;-85
2023/03/15 01:44:15;;;;;;;11.93;2.97;;;;;;;7.96;75.21;99960.75;4972931;28;20034;-85
2023/03/15 01:46:41;;;;;;;6.75;3.42;;;;;;;8.11;75.88;99978.25;4971781;28;20674;-85
2023/03/15 01:49:17;;;;;;;15.10;3.13;;;;;;;8.17;75.74;99978.59;4973018;28;20023;-85
2023/03/15 01:51:50;;;;;;;11.65;2.95;;;;;;;8.14;75.68;99964.59;4972558;28;20038;-87
2023/03/15 01:54:21;;;;;;;6.82;3.13;;;;;;;8.11;75.99;99963.03;4973317;28;20058;-85
2023/03/15 01:56:57;;;;;;;7.50;3.38;;;;;;;8.03;75.29;99953.94;4972741;28;20018;-85
2023/03/15 01:59:30;;;;;;;9.27;3.08;;;;;;;8.04;75.82;99972.53;4973629;28;20042;-85
2023/03/15 02:01:57;;;;;;;10.45;3.20;;;;;;;8.03;76.20;99976.22;4975596;28;20053;-86
2023/03/15 02:04:35;;;;;;;10.80;3.05;;;;;;;8.02;76.49;99973.63;4990819;28;20030;-81
2023/03/15 02:07:02;;;;;;;11.05;3.15;;;;;;;7.95;76.29;99961.75;4996058;28;20022;-80
2023/03/15 02:09:46;;;;;;;5.95;3.08;;;;;;;8.02;76.45;99962.94;4980803;28;20115;-86
2023/03/15 02:12:11;;;;;;;11.52;3.25;;;;;;;7.90;76.93;99958.56;4971936;28;20027;-85
2023/03/15 02:14:38;;;;;;;15.32;3.47;;;;;;;7.92;76.94;99945.94;4972365;28;20097;-84
2023/03/15 02:17:03;;;;;;;20.77;4.60;;;;;;;7.94;77.25;99957.34;4973488;28;20031;-85
2023/03/15 02:19:47;;;;;;;14.13;5.10;;;;;;;7.95;77.54;99956.38;4972728;28;20486;-81
2023/03/15 02:22:28;;;;;;;11.15;4.40;;;;;;;7.82;77.74;99963.69;4973335;28;20040;-85
2023/03/15 02:25:17;;;;;;;8.82;3.08;;;;;;;7.89;78.03;99978.31;4972312;28;20557;-84
2023/03/15 02:27:43;;;;;;;18.73;3.42;;;;;;;7.83;78.04;99968.91;4972341;28;20490;-85
2023/03/15 02:30:10;;;;;;;29.38;5.50;;;;;;;7.84;78.69;99972.44;4972276;28;20450;-85
2023/03/15 02:32:36;;;;;;;8.88;3.13;;;;;;;7.80;78.68;99969.16;4972762;28;20142;-85
2023/03/15 02:35:01;;;;;;;8.98;2.85;;;;;;;7.75;78.75;99979.41;4972362;28;20839;-84
2023/03/15 02:37:27;;;;;;;5.40;4.07;;;;;;;7.72;79.34;99970.75;4972577;28;20030;-85
2023/03/15 02:39:52;;;;;;;8.60;4.63;;;;;;;7.71;78.76;99972.56;4972684;28;20038;-85
2023/03/15 02:42:18;;;;;;;18.60;3.72;;;;;;;7.73;79.38;99969.78;4971997;28;20122;-85
2023/03/15 02:44:45;;;;;;;14.27;3.17;;;;;;;7.77;79.38;99976.63;4972401;28;20023;-84
2023/03/15 02:47:29;;;;;;;27.60;5.88;;;;;;;7.77;79.28;99961.38;4972040;28;20030;-81
2023/03/15 02:49:54;;;;;;;11.93;4.30;;;;;;;7.79;79.07;99966.63;4972217;28;20462;-85
2023/03/15 02:52:22;;;;;;;15.07;4.00;;;;;;;7.76;79.14;99972.22;4972365;28;20026;-85
2023/03/15 02:54:48;;;;;;;12.27;3.80;;;;;;;7.80;78.96;99962.97;4972426;28;20035;-86
2023/03/15 02:57:16;;;;;;;10.02;3.45;;;;;;;7.75;78.93;99959.81;4974739;28;20408;-87
2023/03/15 02:59:42;;;;;;;13.20;3.30;;;;;;;7.72;79.38;99963.59;4974752;28;20034;-83
2023/03/15 03:02:10;;;;;;;9.32;4.10;;;;;;;7.72;79.17;99976.97;4983586;28;20045;-81
2023/03/15 03:04:36;;;;;;;10.27;3.20;;;;;;;7.70;79.19;99970.03;4995990;28;20090;-83
2023/03/15 03:07:01;;;;;;;13.63;3.25;;;;;;;7.78;79.12;99964.91;4996529;28;20094;-80
2023/03/15 03:09:27;;;;;;;11.27;3.55;;;;;;;7.78;78.70;99965.78;4995094;28;20090;-84
2023/03/15 03:11:52;;;;;;;8.88;3.10;;;;;;;7.65;78.21;99949.84;4993174;28;20031;-85
2023/03/15 03:14:18;;;;;;;11.60;3.35;;;;;;;7.72;78.29;99960.06;5020058;28;20041;-86
2023/03/15 03:16:43;;;;;;;18.98;4.20;;;;;;;7.78;78.42;99963.09;4971210;28;20019;-84
2023/03/15 03:19:11;;;;;;;8.55;3.70;;;;;;;7.80;78.43;99960.31;4971717;28;20059;-86
2023/03/15 03:21:37;;;;;;;14.93;2.95;;;;;;;7.86;78.13;99962.50;4973019;28;20026;-86
2023/03/15 03:24:02;;;;;;;7.43;2.88;;;;;;;7.83;78.26;99963.56;4971091;28;20756;-85
2023/03/15 03:26:31;;;;;;;19.63;3.90;;;;;;;7.88;78.38;99971.25;4971027;28;20054;-84
2023/03/15 03:28:57;;;;;;;10.90;3.53;;;;;;;7.89;78.65;99972.94;4971130;28;20406;-85
2023/03/15 03:31:26;;;;;;;17.50;3.42;;;;;;;7.94;77.87;99973.41;4971865;28;20026;-85
2023/03/15 03:33:51;;;;;;;9.93;3.10;;;;;;;7.83;77.11;99974.28;4974489;28;20038;-85
2023/03/15 03:36:18;;;;;;;7.93;3.10;;;;;;;7.83;77.40;99965.41;4973035;28;20446;-82
2023/03/15 03:38:45;;;;;;;12.82;3.65;;;;;;;7.86;77.66;99962.50;4971228;28;20092;-85
2023/03/15 03:41:12;;;;;;;15.57;3.13;;;;;;;7.91;77.45;99965.63;4971686;28;20027;-84
2023/03/15 03:43:38;;;;;;;9.00;3.03;;;;;;;7.88;77.02;99963.22;4971697;28;20030;-85
2023/03/15 03:46:04;;;;;;;11.15;2.90;;;;;;;7.83;77.23;99963.56;4973599;28;20023;-87
2023/03/15 03:48:30;;;;;;;19.77;4.78;;;;;;;7.75;77.29;99946.41;4971975;28;20454;-84
2023/03/15 03:50:56;;;;;;;9.25;3.13;;;;;;;7.89;76.84;99957.72;4971749;28;20050;-83
2023/03/15 03:53:22;;;;;;;7.70;2.83;;;;;;;7.83;75.92;99952.03;4978199;28;20520;-84
2023/03/15 03:55:47;;;;;;;10.00;3.17;;;;;;;7.77;76.10;99952.53;4978149;28;20027;-83
2023/03/15 03:58:13;;;;;;;8.65;2.80;;;;;;;7.80;76.70;99955.78;4979107;28;20037;-84
2023/03/15 04:00:39;;;;;;;14.45;3.20;;;;;;;7.92;76.97;99962.00;4973835;28;20435;-86
2023/03/15 04:03:04;;;;;;;11.07;3.80;;;;;;;7.91;77.08;99954.94;4985097;28;20038;-83
2023/03/15 04:05:29;;;;;;;12.60;3.00;;;;;;;7.92;77.39;99959.31;4993510;28;20035;-84
2023/03/15 04:07:55;;;;;;;9.43;3.47;;;;;;;7.91;76.86;99962.97;4983726;28;20043;-85
2023/03/15 04:10:25;;;;;;;8.55;2.75;;;;;;;7.92;76.52;99948.59;4972252;28;20026;-84
2023/03/15 04:12:53;;;;;;;15.60;3.42;;;;;;;7.87;76.45;99942.75;4988414;28;20042;-85
2023/03/15 04:15:21;;;;;;;11.18;3.17;;;;;;;7.87;76.82;99948.97;4975688;28;20089;-86
2023/03/15 04:17:47;;;;;;;8.90;3.15;;;;;;;7.78;77.05;99932.78;4956383;28;20466;-86
2023/03/15 04:20:16;;;;;;;13.48;3.13;;;;;;;7.84;76.82;99949.22;4974382;28;20026;-86
2023/03/15 04:22:48;;;;;;;16.98;3.58;;;;;;;7.82;77.20;99926.22;4989635;28;20508;-85
2023/03/15 04:25:17;;;;;;;13.73;3.53;;;;;;;7.98;76.79;99940.06;4977480;28;20080;-85
2023/03/15 04:27:42;;;;;;;11.20;4.10;;;;;;;7.99;77.12;99942.63;4977479;28;20050;-84
2023/03/15 04:30:09;;;;;;;7.35;3.28;;;;;;;8.02;77.09;99930.78;4976942;28;20027;-85
2023/03/15 04:32:34;;;;;;;12.98;2.95;;;;;;;8.00;76.71;99938.13;4978226;28;20090;-86
2023/03/15 04:35:00;;;;;;;12.18;3.55;;;;;;;8.02;76.76;99936.16;4979111;28;20054;-86
2023/03/15 04:37:27;;;;;;;17.15;3.33;;;;;;;8.04;77.28;99939.56;4978324;28;20077;-85
2023/03/15 04:39:52;;;;;;;12.52;3.35;;;;;;;8.10;76.54;99933.72;4979243;28;20058;-85
2023/03/15 04:42:18;;;;;;;9.95;4.63;;;;;;;8.09;76.20;99942.72;4978732;28;20027;-86
2023/03/15 04:44:44;;;;;;;10.63;3.97;;;;;;;8.06;76.17;99945.66;5010123;28;20041;-84
2023/03/15 04:47:09;;;;;;;12.13;3.38;;;;;;;8.00;75.83;99932.75;4974716;28;20022;-83
2023/03/15 04:49:35;;;;;;;13.68;3.45;;;;;;;8.12;75.99;99947.81;4973952;28;20489;-87
2023/03/15 04:52:00;;;;;;;13.20;3.47;;;;;;;8.05;76.00;99926.03;4973859;28;20027;-83
2023/03/15 04:54:26;;;;;;;15.63;4.40;;;;;;;8.07;76.29;99944.69;4973388;28;20031;-83
2023/03/15 04:56:51;;;;;;;8.10;3.78;;;;;;;8.14;76.97;99945.84;4978697;28;20030;-85
2023/03/15 04:59:17;;;;;;;14.18;4.00;;;;;;;8.18;76.74;99936.59;4974530;28;20556;-84
2023/03/15 05:01:42;;;;;;;18.90;6.03;;;;;;;8.14;76.59;99940.50;4977145;28;20462;-81
2023/03/15 05:04:07;;;;;;;27.92;3.70;;;;;;;8.17;76.15;99938.44;4995086;28;20050;-85
2023/03/15 05:06:33;;;;;;;10.50;3.30;;;;;;;8.15;76.95;99935.03;4995426;28;20090;-80
2023/03/15 05:08:58;;;;;;;12.25;3.40;;;;;;;8.23;76.87;99937.06;4976307;28;20050;-86
2023/03/15 05:11:24;;;;;;;20.17;4.18;;;;;;;8.37;77.07;99936.81;4974014;28;20023;-84
2023/03/15 05:13:49;;;;;;;15.05;3.88;;;;;;;8.34;76.78;99915.66;4972904;28;20034;-86
2023/03/15 05:16:15;;;;;;;22.73;4.72;;;;;;;8.31;75.90;99923.94;4972935;28;20026;-86
2023/03/15 05:18:40;;;;;;;17.58;3.55;;;;;;;8.28;75.83;99910.78;4972952;28;20054;-84
2023/03/15 05:21:06;;;;;;;28.17;5.07;;;;;;;8.45;76.15;99910.22;4972343;28;20027;-85
2023/03/15 05:23:35;;;;;;;13.82;3.75;;;;;;;8.46;75.46;99914.63;4972776;28;20034;-86
2023/03/15 05:26:00;;;;;;;12.73;4.05;;;;;;;8.36;75.14;99900.28;4956574;28;20035;-86
2023/03/15 05:28:26;;;;;;;22.35;3.58;;;;;;;8.39;75.40;99897.34;4976493;28;20038;-86
2023/03/15 05:30:52;;;;;;;27.10;4.55;;;;;;;8.42;75.57;99901.59;4973449;28;20038;-85
2023/03/15 05:33:19;;;;;;;34.70;4.80;;;;;;;8.44;75.85;99905.84;4973161;28;20043;-86
2023/03/15 05:35:44;;;;;;;28.35;6.68;;;;;;;8.45;75.61;99899.50;4973129;28;20133;-84
2023/03/15 05:38:13;;;;;;;24.63;5.18;;;;;;;8.44;75.09;99889.75;4974807;28;20606;-86
2023/03/15 05:40:45;;;;;;;17.90;5.95;;;;;;;8.40;75.27;99885.66;4973828;28;20050;-86
2023/03/15 05:43:11;;;;;;;9.63;4.55;;;;;;;8.44;75.53;99888.94;4972294;28;20027;-82
2023/03/15 05:45:37;;;;;;;17.67;3.55;;;;;;;8.47;75.55;99889.50;4972606;28;20588;-87
2023/03/15 05:48:04;;;;;;;14.65;3.10;;;;;;;8.57;75.34;99894.94;4970400;28;20047;-86
2023/03/15 05:50:30;;;;;;;18.08;3.65;;;;;;;8.55;75.37;99892.41;4971541;28;20038;-82
2023/03/15 05:52:56;;;;;;;13.52;4.05;;;;;;;8.63;74.75;99899.78;4970301;28;20038;-87
2023/03/15 05:55:22;;;;;;;13.75;4.07;;;;;;;8.66;74.52;99897.69;4973293;28;20105;-86
2023/03/15 05:57:48;;;;;;;13.38;3.70;;;;;;;8.80;74.48;99890.31;4975191;28;20407;-85
2023/03/15 06:00:15;;;;;;;15.90;3.33;;;;;;;8.70;73.72;99885.72;4974754;28;20102;-85
2023/03/15 06:02:42;;;;;;;15.77;3.50;;;;;;;8.77;73.45;99878.03;4987537;28;20030;-81
2023/03/15 06:05:09;;;;;;;14.73;4.68;;;;;;;8.74;73.49;99871.06;5032257;28;20077;-81
2023/03/15 06:07:35;;;;;;;11.13;3.95;;;;;;;8.82;73.74;99867.75;5023105;28;20050;-85
2023/03/15 06:10:01;;;;;;;17.67;3.72;;;;;;;8.87;73.93;99856.63;5011298;28;20056;-85
2023/03/15 06:12:26;;;;;;;15.20;4.85;;;;;;;8.97;73.64;99860.19;5012665;28;20410;-86
2023/03/15 06:14:51;;;;;;;37.65;6.00;;;;;;;8.95;73.39;99863.03;5011429;28;20037;-86
2023/03/15 06:17:17;;;;;;;36.58;4.85;;;;;;;8.97;73.73;99862.88;4993393;28;20099;-83
2023/03/15 06:19:42;;;;;;;40.28;6.55;;;;;;;9.14;73.54;99862.28;5009386;28;20034;-85
2023/03/15 06:22:08;;;;;;;18.13;6.47;;;;;;;9.22;73.13;99859.75;5009675;28;20034;-81
2023/03/15 06:24:34;;;;;;;22.80;4.60;;;;;;;9.33;73.08;99856.13;5009934;28;20034;-87
2023/03/15 06:26:59;;;;;;;16.35;4.13;;;;;;;9.35;72.63;99855.00;5010178;28;20513;-86
2023/03/15 06:29:25;;;;;;;37.70;4.82;;;;;;;9.39;72.32;99828.75;5010101;28;20548;-85
2023/03/15 06:31:51;;;;;;;69.85;9.23;;;;;;;9.54;72.66;99833.56;5009922;28;20145;-84
2023/03/15 06:34:17;;;;;;;11.85;2.80;;;;;;;9.59;71.66;99828.66;5009452;28;20115;-85
2023/03/15 06:36:44;;;;;;;27.80;4.70;;;;;;;9.50;71.42;99829.50;4982714;28;20573;-86
2023/03/15 06:39:10;;;;;;;31.95;4.70;;;;;;;9.55;71.36;99829.06;4972777;28;20039;-85
2023/03/15 06:41:36;;;;;;;18.90;3.50;;;;;;;9.55;71.68;99829.91;4972311;28;20177;-86
2023/03/15 06:44:02;;;;;;;10.82;4.18;;;;;;;9.44;71.50;99813.94;5002884;28;20118;-85
2023/03/15 06:46:27;;;;;;;76.93;8.63;;;;;;;9.57;71.44;99817.19;4972365;28;20030;-85
2023/03/15 06:48:52;;;;;;;24.90;4.50;;;;;;;9.55;71.76;99827.22;4971543;28;20446;-84
2023/03/15 06:51:18;;;;;;;19.55;4.95;;;;;;;9.57;72.24;99832.47;4971836;28;20050;-87
2023/03/15 06:53:43;;;;;;;27.05;3.67;;;;;;;9.63;72.43;99830.06;4971995;28;20034;-86
2023/03/15 06:56:09;;;;;;;18.75;3.78;;;;;;;9.53;72.55;99831.03;4972998;28;20030;-82
2023/03/15 06:58:35;;;;;;;31.63;5.75;;;;;;;9.55;72.73;99840.66;4973733;28;20030;-84
2023/03/15 07:01:00;;;;;;;17.13;4.75;;;;;;;9.52;72.39;99835.56;4979670;28;20089;-82
2023/03/15 07:03:26;;;;;;;12.68;4.18;;;;;;;9.60;72.42;99853.69;4992784;28;20033;-81
2023/03/15 07:05:53;;;;;;;19.65;3.95;;;;;;;9.60;72.21;99843.75;4993517;28;20034;-81
2023/03/15 07:08:20;;;;;;;30.08;5.18;;;;;;;9.68;72.21;99840.41;4976648;28;20031;-86
2023/03/15 07:10:45;;;;;;;14.10;3.80;;;;;;;9.57;72.51;99846.72;4978534;28;20029;-82
2023/03/15 07:13:12;;;;;;;12.25;4.50;;;;;;;9.57;72.93;99843.22;4976180;28;20030;-84
2023/03/15 07:15:38;;;;;;;23.02;3.85;;;;;;;9.54;73.24;99847.00;4987337;28;20021;-81
2023/03/15 07:18:03;;;;;;;26.17;4.90;;;;;;;9.55;74.07;99855.91;4996066;28;20027;-83
2023/03/15 07:20:30;;;;;;;27.65;3.95;;;;;;;9.50;74.04;99840.22;4993641;28;20063;-82
2023/03/15 07:22:56;;;;;;;30.75;4.50;;;;;;;9.49;74.61;99843.03;4992518;28;20066;-80
2023/03/15 07:25:22;;;;;;;26.85;4.63;;;;;;;9.56;74.57;99858.47;4986948;28;20410;-85
2023/03/15 07:27:52;;;;;;;26.17;4.53;;;;;;;9.61;74.15;99850.84;4975218;28;20038;-85
2023/03/15 07:30:18;;;;;;;21.38;4.72;;;;;;;9.84;74.19;99854.16;4971602;28;20057;-86
2023/03/15 07:32:44;;;;;;;10.65;3.97;;;;;;;9.89;73.64;99853.72;4973222;28;20038;-85
2023/03/15 07:35:09;;;;;;;34.58;6.40;;;;;;;9.82;73.12;99854.28;4974180;28;20065;-87
2023/03/15 07:37:35;;;;;;;15.90;4.00;;;;;;;9.82;73.15;99867.69;4970829;28;20027;-84
2023/03/15 07:40:08;;;;;;;21.83;5.88;;;;;;;9.83;73.29;99855.97;4970815;28;20031;-84
2023/03/15 07:42:36;;;;;;;24.38;4.55;;;;;;;9.78;73.04;99868.13;4970904;28;20085;-86
2023/03/15 07:45:04;;;;;;;24.38;4.85;;;;;;;9.81;73.45;99873.22;4971506;28;20454;-84
2023/03/15 07:47:29;;;;;;;25.45;5.70;;;;;;;9.87;73.68;99869.13;4974604;28;20023;-82
2023/03/15 07:49:55;;;;;;;36.33;6.10;;;;;;;9.91;73.28;99873.25;4975049;28;20459;-86
2023/03/15 07:52:21;;;;;;;24.70;5.50;;;;;;;9.85;72.41;99859.38;4973094;28;20440;-87
2023/03/15 07:54:46;;;;;;;15.95;4.65;;;;;;;9.92;72.62;99872.25;4975183;28;20078;-86
2023/03/15 07:57:12;;;;;;;19.38;5.30;;;;;;;9.82;71.71;99870.38;4976392;28;20498;-87
2023/03/15 07:59:37;;;;;;;38.58;6.32;;;;;;;9.88;71.96;99878.91;4977791;28;20027;-87
2023/03/15 08:02:03;;;;;;;37.25;7.75;;;;;;;9.94;72.15;99867.59;4989778;28;20019;-82
2023/03/15 08:04:29;;;;;;;19.75;4.70;;;;;;;9.95;70.91;99858.53;4998561;28;20039;-82
2023/03/15 08:06:55;;;;;;;23.08;5.05;;;;;;;9.91;71.77;99863.31;4989345;28;20027;-84
2023/03/15 08:09:20;;;;;;;26.05;4.93;;;;;;;9.94;71.46;99871.09;4974883;28;20023;-82
2023/03/15 08:11:45;;;;;;;14.85;4.50;;;;;;;9.73;71.50;99865.84;4974825;28;20466;-85
2023/03/15 08:14:11;;;;;;;20.33;5.43;;;;;;;9.57;72.04;99860.16;4975283;28;20019;-84
2023/03/15 08:16:36;;;;;;;18.45;4.53;;;;;;;9.54;73.31;99863.09;4974746;28;20027;-87
2023/03/15 08:19:02;;;;;;;23.45;4.85;;;;;;;9.43;74.27;99852.50;4974642;28;20031;-85
2023/03/15 08:21:27;;;;;;;23.55;5.28;;;;;;;9.55;73.79;99856.75;4977554;28;20035;-88
2023/03/15 08:23:52;;;;;;;29.38;6.53;;;;;;;9.59;73.70;99841.22;4975051;28;20077;-85
2023/03/15 08:26:18;;;;;;;24.15;4.68;;;;;;;9.67;73.99;99850.28;4956387;28;20050;-85
2023/03/15 08:28:43;;;;;;;17.30;4.88;;;;;;;9.78;73.78;99842.09;4974372;28;20027;-87
2023/03/15 08:31:09;;;;;;;32.95;6.55;;;;;;;9.88;73.53;99833.25;4975059;28;20034;-86
2023/03/15 08:33:34;;;;;;;35.60;5.65;;;;;;;10.07;72.75;99846.66;4982273;28;20030;-86
2023/03/15 08:36:00;;;;;;;34.17;5.70;;;;;;;10.14;72.61;99837.09;4974884;28;20059;-84
2023/03/15 08:38:26;;;;;;;37.35;8.05;;;;;;;10.40;72.64;99840.88;4974045;28;20027;-85
2023/03/15 08:40:58;;;;;;;21.95;6.40;;;;;;;10.56;71.83;99849.22;4974544;28;20841;-87
2023/03/15 08:43:24;;;;;;;23.25;8.07;;;;;;;10.54;71.49;99848.53;4974187;28;20465;-86
2023/03/15 08:45:50;;;;;;;33.90;7.03;;;;;;;10.73;71.11;99851.16;4974720;28;20471;-84
2023/03/15 08:48:16;;;;;;;30.83;6.45;;;;;;;10.77;70.24;99854.41;4974478;28;20031;-88
2023/03/15 08:50:42;;;;;;;25.85;6.90;;;;;;;10.70;71.10;99862.22;4972203;28;20101;-86
2023/03/15 08:53:08;;;;;;;20.10;6.07;;;;;;;10.61;71.02;99852.31;4970999;28;20132;-87
2023/03/15 08:55:34;;;;;;;19.38;5.28;;;;;;;10.55;71.78;99869.03;4974419;28;20539;-86
2023/03/15 08:58:00;;;;;;;14.65;5.50;;;;;;;10.59;72.24;99853.47;4975393;28;20704;-86
2023/03/15 09:00:26;;;;;;;35.88;6.88;;;;;;;10.59;72.62;99854.31;4985577;28;20038;-83
2023/03/15 09:02:52;;;;;;;34.53;6.65;;;;;;;10.79;73.01;99850.59;4996413;28;20019;-85
2023/03/15 09:05:19;;;;;;;33.53;7.97;;;;;;;10.95;72.15;99846.47;4996211;28;20102;-82
2023/03/15 09:07:45;;;;;;;52.70;9.00;;;;;;;11.09;71.58;99840.59;4976398;28;21076;-86
2023/03/15 09:10:13;;;;;;;25.90;6.53;;;;;;;10.75;71.86;99840.28;4975547;28;20030;-86
2023/03/15 09:12:41;;;;;;;22.85;7.47;;;;;;;10.81;72.28;99828.94;4974010;28;20038;-86
2023/03/15 09:15:07;;;;;;;26.33;7.20;;;;;;;10.71;72.55;99830.78;4973856;28;20102;-86
2023/03/15 09:17:32;;;;;;;55.38;8.23;;;;;;;10.98;72.13;99835.41;4973196;28;20031;-86
2023/03/15 09:19:58;;;;;;;28.02;6.75;;;;;;;11.04;71.42;99838.34;4974132;28;20030;-86
2023/03/15 09:22:23;;;;;;;28.70;7.60;;;;;;;10.97;71.80;99839.09;4972826;28;20090;-85
2023/03/15 09:24:49;;;;;;;19.48;7.15;;;;;;;11.05;72.08;99831.13;4973094;28;20022;-86
2023/03/15 09:27:14;;;;;;;23.83;7.10;;;;;;;11.04;72.64;99837.53;4971343;28;20034;-87
2023/03/15 09:29:40;;;;;;;25.20;7.68;;;;;;;10.83;72.79;99803.59;4973027;28;20023;-85
2023/03/15 09:32:05;;;;;;;24.20;7.97;;;;;;;10.88;73.37;99833.59;4974200;28;20034;-83
2023/03/15 09:34:31;;;;;;;34.90;9.00;;;;;;;10.98;74.28;99827.34;4976143;28;20102;-86
2023/03/15 09:36:56;;;;;;;37.25;11.20;;;;;;;10.80;73.22;99828.09;4976138;28;20146;-86
2023/03/15 09:39:22;;;;;;;37.55;12.38;;;;;;;10.90;72.97;99831.59;4974311;28;20110;-87
2023/03/15 09:41:57;;;;;;;28.63;11.85;;;;;;;10.87;72.25;99814.91;4972470;28;20085;-86
2023/03/15 09:44:50;;;;;;;50.13;14.18;;;;;;;10.85;72.37;99812.38;4941218;28;20039;-85
2023/03/15 09:47:18;;;;;;;40.40;12.00;;;;;;;10.85;72.41;99801.63;4976275;28;20023;-86
2023/03/15 09:50:13;;;;;;;35.60;13.48;;;;;;;10.93;72.94;99799.03;4975380;28;20495;-84
2023/03/15 09:52:45;;;;;;;24.20;12.95;;;;;;;11.00;72.98;99799.28;4972392;28;20387;-86
2023/03/15 09:55:23;;;;;;;20.17;11.40;;;;;;;11.04;72.73;99799.84;4974857;28;20109;-87
2023/03/15 09:57:54;;;;;;;49.28;14.10;;;;;;;11.05;73.28;99801.53;4977716;28;20045;-85
2023/03/15 10:00:34;;;;;;;23.65;13.20;;;;;;;11.00;73.13;99798.44;4981023;28;20128;-82
2023/03/15 10:03:05;;;;;;;30.55;14.48;;;;;;;11.12;73.43;99786.50;4995080;28;20034;-85
2023/03/15 10:05:37;;;;;;;105.30;20.98;;;;;;;11.26;72.50;99794.91;4994161;28;20031;-87
2023/03/15 10:08:09;;;;;;;38.78;15.27;;;;;;;11.14;71.51;99779.97;4973609;28;20038;-85
2023/03/15 10:10:42;;;;;;;35.28;15.95;;;;;;;10.96;71.17;99788.97;4979347;28;20026;-85
2023/03/15 10:13:25;;;;;;;24.48;15.40;;;;;;;11.01;72.27;99789.38;4978749;28;20038;-86
2023/03/15 10:16:14;;;;;;;45.58;14.43;;;;;;;11.06;72.13;99776.31;4975770;28;20039;-83
2023/03/15 10:18:52;;;;;;;42.47;15.90;;;;;;;11.21;72.70;99764.91;4976456;28;20042;-84
2023/03/15 10:21:36;;;;;;;37.45;16.00;;;;;;;11.36;73.15;99778.72;4976059;28;20031;-84
2023/03/15 10:24:04;;;;;;;37.92;15.95;;;;;;;11.50;71.83;99764.72;4976917;28;20053;-86
2023/03/15 10:26:38;;;;;;;31.75;14.57;;;;;;;11.66;71.19;99774.81;4976432;28;20117;-85
2023/03/15 10:29:13;;;;;;;57.95;17.52;;;;;;;11.63;70.73;99765.22;4975363;28;20043;-86
2023/03/15 10:31:40;;;;;;;32.65;14.45;;;;;;;11.63;71.64;99769.75;4974958;28;20041;-86
2023/03/15 10:34:08;;;;;;;27.02;15.98;;;;;;;11.37;72.39;99769.66;4974936;28;20058;-84
2023/03/15 10:36:33;;;;;;;107.15;25.45;;;;;;;11.39;73.01;99762.25;4974593;28;20034;-80
2023/03/15 10:38:59;;;;;;;65.05;19.10;;;;;;;11.31;73.09;99759.47;4974153;28;20041;-83
2023/03/15 10:41:37;;;;;;;36.05;15.43;;;;;;;11.34;72.83;99756.50;4972633;28;20031;-85
2023/03/15 10:44:06;;;;;;;27.05;15.82;;;;;;;11.32;73.15;99755.78;4975356;28;20042;-85
2023/03/15 10:46:34;;;;;;;63.92;18.75;;;;;;;11.49;73.34;99744.22;4975116;28;20046;-87
2023/03/15 10:49:14;;;;;;;29.77;15.98;;;;;;;11.50;72.86;99732.41;4973773;28;20117;-84
2023/03/15 10:51:47;;;;;;;34.00;15.30;;;;;;;11.57;72.67;99724.56;4973097;28;20073;-84
2023/03/15 10:54:23;;;;;;;42.03;16.15;;;;;;;11.53;72.79;99710.56;4970176;28;20441;-84
2023/03/15 10:56:59;;;;;;;41.38;13.55;;;;;;;11.55;72.54;99710.44;4973101;28;20051;-86
2023/03/15 10:59:27;;;;;;;31.33;13.25;;;;;;;11.45;72.77;99702.41;4971861;28;20042;-86
2023/03/15 11:02:15;;;;;;;34.88;15.30;;;;;;;11.51;73.58;99703.66;4991024;28;20062;-84
2023/03/15 11:04:42;;;;;;;141.38;27.15;;;;;;;11.79;72.63;99706.16;4992203;28;20026;-83
2023/03/15 11:07:08;;;;;;;35.00;13.93;;;;;;;11.66;73.54;99711.03;4973036;28;20039;-87
2023/03/15 11:09:39;;;;;;;30.30;14.77;;;;;;;11.84;73.32;99708.38;4970932;28;20034;-84
2023/03/15 11:12:07;;;;;;;50.55;14.00;;;;;;;11.92;71.33;99706.63;4971346;28;20522;-85
2023/03/15 11:14:42;;;;;;;31.02;11.60;;;;;;;11.86;71.51;99701.81;4969993;28;20120;-85
2023/03/15 11:17:16;;;;;;;27.98;13.25;;;;;;;11.95;71.65;99690.13;4971287;28;20034;-84
2023/03/15 11:19:50;;;;;;;32.25;12.30;;;;;;;12.14;71.35;99693.63;4970541;28;20038;-87
2023/03/15 11:22:16;;;;;;;35.08;12.50;;;;;;;12.19;71.12;99697.56;4972220;28;20038;-85
2023/03/15 11:24:41;;;;;;;37.60;13.73;;;;;;;11.97;71.70;99688.13;4971219;28;20118;-86
2023/03/15 11:27:16;;;;;;;34.33;11.57;;;;;;;12.24;71.75;99688.97;4983006;28;20026;-83
2023/03/15 11:29:47;;;;;;;26.75;13.35;;;;;;;12.36;70.99;99671.53;4979410;28;20047;-86
2023/03/15 11:32:33;;;;;;;33.88;11.57;;;;;;;12.45;71.14;99667.88;4989592;28;20054;-81